Time;durP1;ratioP1;P1;durP2;ratioP2;P2;SDS_P1;SDS_P2;PMS_P1;PMS_P2;Temp;Humidity;BMP_temperature;BMP_pressure;BME280_temperature;BME280_humidity;BME280_pressure;Samples;Min_cycle;Max_cycle;Signal;HPM_P1;HPM_P2
2021/07/08 00:02:17;;;;;;;3.20;0.90;;;;;;;28.57;37.37;96918.19;6130993;23;20437;-73
2021/07/08 00:04:43;;;;;;;1.15;0.60;;;;;;;28.50;37.23;96901.06;6109035;23;20928;-73
2021/07/08 00:07:12;;;;;;;2.60;0.80;;;;;;;28.58;37.41;96909.34;6108383;23;20235;-73
2021/07/08 00:09:37;;;;;;;1.17;0.70;;;;;;;28.58;37.35;96908.47;6136024;23;20009;-73
2021/07/08 00:12:04;;;;;;;2.47;0.80;;;;;;;28.59;37.39;96904.91;6109026;23;20434;-73
2021/07/08 00:14:29;;;;;;;7.07;1.10;;;;;;;28.57;37.43;96891.84;6104651;23;20099;-73
2021/07/08 00:16:55;;;;;;;2.38;0.75;;;;;;;28.57;37.41;96886.56;6135460;23;20021;-73
2021/07/08 00:19:20;;;;;;;3.05;0.77;;;;;;;28.56;37.28;96890.97;6083612;23;20016;-73
2021/07/08 00:21:45;;;;;;;4.68;0.73;;;;;;;28.58;37.41;96903.22;6085209;23;20005;-72
2021/07/08 00:24:11;;;;;;;3.15;1.23;;;;;;;28.58;37.44;96908.47;6159540;23;20008;-73
2021/07/08 00:26:36;;;;;;;2.63;0.70;;;;;;;28.59;37.40;96900.47;6130525;23;20020;-73
2021/07/08 00:29:02;;;;;;;9.23;0.90;;;;;;;28.57;37.28;96897.09;6131877;23;20005;-73
2021/07/08 00:31:28;;;;;;;2.75;0.68;;;;;;;28.59;37.40;96897.84;6085049;23;20019;-72
2021/07/08 00:33:53;;;;;;;2.38;0.60;;;;;;;28.57;37.50;96902.38;6108516;23;20792;-73
2021/07/08 00:36:18;;;;;;;1.70;0.60;;;;;;;28.59;37.37;96905.75;6083312;23;20039;-73
2021/07/08 00:38:44;;;;;;;2.75;0.80;;;;;;;28.59;37.31;96897.84;6131821;23;20051;-73
2021/07/08 00:41:09;;;;;;;2.55;0.60;;;;;;;28.58;37.56;96885.59;6133034;23;20182;-73
2021/07/08 00:43:35;;;;;;;0.68;0.60;;;;;;;28.59;37.44;96873.25;6160770;23;20073;-73
2021/07/08 00:46:01;;;;;;;0.85;0.45;;;;;;;28.59;37.30;96868.84;6132992;23;20020;-73
2021/07/08 00:48:28;;;;;;;0.70;0.60;;;;;;;28.60;37.43;96877.59;6131395;23;20008;-73
2021/07/08 00:50:54;;;;;;;1.80;0.70;;;;;;;28.58;37.37;96872.44;6156300;23;20001;-74
2021/07/08 00:53:20;;;;;;;1.40;0.68;;;;;;;28.58;37.35;96877.69;6106378;23;20314;-73
2021/07/08 00:55:47;;;;;;;1.27;0.65;;;;;;;28.55;37.37;96862.06;6106563;23;20092;-73
2021/07/08 00:58:16;;;;;;;0.75;0.50;;;;;;;28.59;37.36;96860.94;6105523;23;20008;-73
2021/07/08 01:00:42;;;;;;;2.10;0.60;;;;;;;28.59;37.60;96855.66;6134229;23;20005;-74
2021/07/08 01:03:08;;;;;;;1.70;0.55;;;;;;;28.56;37.39;96842.66;6156911;23;20016;-73
2021/07/08 01:05:39;;;;;;;1.02;0.60;;;;;;;28.57;37.38;96833.84;6130295;23;20051;-73
2021/07/08 01:08:05;;;;;;;2.83;0.70;;;;;;;28.59;37.52;96825.81;6129581;23;20370;-72
2021/07/08 01:10:30;;;;;;;3.00;0.80;;;;;;;28.59;37.45;96821.38;6130627;23;20342;-74
2021/07/08 01:12:56;;;;;;;2.88;0.80;;;;;;;28.61;37.57;96826.56;6103608;23;20106;-73
2021/07/08 01:15:24;;;;;;;2.00;0.60;;;;;;;28.59;37.42;96824.03;6134904;23;20643;-73
2021/07/08 01:18:48;;;;;;;2.85;0.70;;;;;;;-148.56;100.00;61375.16;6151804;23;20428;-73
2021/07/08 01:21:27;;;;;;;1.67;0.70;;;;;;;28.63;37.47;96838.69;6117441;23;20029;-73
2021/07/08 01:23:53;;;;;;;2.58;0.52;;;;;;;28.59;37.69;96836.34;6108501;23;20059;-73
2021/07/08 01:26:19;;;;;;;0.93;0.75;;;;;;;28.61;37.65;96853.78;6110492;23;20469;-71
2021/07/08 01:28:44;;;;;;;3.20;0.80;;;;;;;28.57;37.50;96849.66;6128401;23;20019;-72
2021/07/08 01:31:10;;;;;;;1.50;0.70;;;;;;;28.61;37.53;96863.47;6109410;23;20194;-71
2021/07/08 01:33:35;;;;;;;2.05;0.70;;;;;;;28.60;37.49;96870.53;6134761;23;20486;-72
2021/07/08 01:36:01;;;;;;;1.60;0.70;;;;;;;28.56;37.54;96867.25;6111255;23;20005;-72
2021/07/08 01:38:27;;;;;;;0.70;0.40;;;;;;;28.60;37.60;96873.16;6133103;23;20005;-73
2021/07/08 01:40:54;;;;;;;1.80;0.57;;;;;;;28.59;37.65;96868.84;6109049;23;20016;-73
2021/07/08 01:43:20;;;;;;;0.50;0.50;;;;;;;28.61;37.65;96861.69;6080747;23;20075;-70
2021/07/08 01:45:45;;;;;;;2.03;0.60;;;;;;;28.59;37.35;96866.22;6133648;23;20005;-72
2021/07/08 01:48:11;;;;;;;3.00;0.73;;;;;;;28.62;37.43;96878.34;6129044;23;20016;-73
2021/07/08 01:50:36;;;;;;;0.93;0.43;;;;;;;28.61;37.54;96872.25;6130532;23;20079;-72
2021/07/08 01:53:02;;;;;;;0.63;0.50;;;;;;;28.61;37.44;96861.69;6157084;23;20008;-72
2021/07/08 01:55:27;;;;;;;4.30;0.50;;;;;;;28.61;37.70;96851.16;6106934;23;20005;-72
2021/07/08 01:57:53;;;;;;;2.90;0.77;;;;;;;28.61;37.55;96848.50;6132804;23;20005;-72
2021/07/08 02:00:19;;;;;;;2.40;0.70;;;;;;;28.63;37.48;96853.66;6159783;23;20005;-73
2021/07/08 02:02:45;;;;;;;2.60;0.70;;;;;;;28.61;37.54;96848.50;6128558;23;20424;-72
2021/07/08 02:10:36;;;;;;;2.13;0.60;;;;;;;-148.56;100.00;61375.16;6157149;23;20051;-73
2021/07/08 02:14:00;;;;;;;2.78;0.60;;;;;;;-148.56;100.00;61375.16;6109204;23;20854;-72
2021/07/08 02:17:24;;;;;;;1.33;0.70;;;;;;;-148.56;100.00;61375.16;6128031;23;20699;-74
2021/07/08 02:20:48;;;;;;;2.28;0.80;;;;;;;-148.56;100.00;61375.16;6108474;23;20476;-73
2021/07/08 02:24:14;;;;;;;1.67;0.50;;;;;;;-148.56;100.00;61375.16;6140782;23;20008;-72
2021/07/08 02:27:40;;;;;;;4.28;0.73;;;;;;;-148.56;100.00;61375.16;6156521;23;20452;-73
2021/07/08 02:30:11;;;;;;;1.85;0.70;;;;;;;28.62;37.60;96818.56;6094762;23;20027;-73
2021/07/08 02:32:37;;;;;;;1.70;0.50;;;;;;;28.60;37.67;96814.34;6107677;23;20056;-72
2021/07/08 02:35:04;;;;;;;3.92;0.73;;;;;;;28.59;37.56;96808.19;6134838;23;20016;-72
2021/07/08 02:37:30;;;;;;;1.90;0.70;;;;;;;28.60;37.60;96817.78;6132321;23;20104;-73
2021/07/08 02:39:55;;;;;;;8.38;0.70;;;;;;;28.61;37.67;96834.47;6160531;23;20008;-73
2021/07/08 02:42:20;;;;;;;2.92;0.70;;;;;;;28.57;37.52;96833.84;6159013;23;20005;-73
2021/07/08 02:44:46;;;;;;;4.78;0.73;;;;;;;28.58;37.49;96826.75;6131274;23;20012;-72
2021/07/08 02:47:11;;;;;;;6.78;0.63;;;;;;;28.57;37.71;96823.28;6153394;23;20005;-73
2021/07/08 02:49:39;;;;;;;1.75;0.60;;;;;;;28.59;37.54;96821.38;6129672;23;20333;-71
2021/07/08 02:52:05;;;;;;;2.50;1.02;;;;;;;28.60;37.47;96833.63;6159786;23;20545;-74
2021/07/08 02:54:30;;;;;;;2.28;0.70;;;;;;;28.60;37.63;96844.16;6160284;23;20005;-73
2021/07/08 02:56:56;;;;;;;3.28;0.60;;;;;;;28.59;37.60;96847.75;6133137;23;20009;-72
2021/07/08 02:59:21;;;;;;;1.23;0.63;;;;;;;28.57;37.83;96849.66;6133863;23;20001;-72
2021/07/08 03:01:47;;;;;;;3.40;0.70;;;;;;;28.60;37.65;96853.88;6128969;23;20008;-72
2021/07/08 03:04:12;;;;;;;2.38;0.70;;;;;;;28.58;37.79;96846.06;6128403;23;20004;-73
2021/07/08 03:06:40;;;;;;;5.78;0.95;;;;;;;28.61;37.50;96851.16;6156970;23;20827;-72
2021/07/08 03:09:05;;;;;;;5.82;0.68;;;;;;;28.60;37.57;96846.78;6130141;23;20009;-71
2021/07/08 03:11:31;;;;;;;3.35;0.70;;;;;;;28.58;37.52;96840.78;6105445;23;20012;-72
2021/07/08 03:13:56;;;;;;;6.13;1.10;;;;;;;28.60;37.63;96854.72;6136326;23;20008;-72
2021/07/08 03:16:22;;;;;;;1.02;0.60;;;;;;;28.60;37.54;96857.34;6159012;23;20005;-73
2021/07/08 03:18:49;;;;;;;2.20;0.80;;;;;;;28.59;37.73;96860.94;6159691;23;20055;-73
2021/07/08 03:21:15;;;;;;;3.85;0.88;;;;;;;28.61;37.53;96860.84;6160934;23;20005;-73
2021/07/08 03:23:40;;;;;;;2.50;1.17;;;;;;;28.60;37.75;96859.97;6132556;23;20009;-72
2021/07/08 03:26:06;;;;;;;7.72;1.35;;;;;;;28.61;37.54;96860.84;6108406;23;20013;-73
2021/07/08 03:28:31;;;;;;;4.20;0.90;;;;;;;28.61;37.53;96869.59;6128599;23;20005;-71
2021/07/08 03:30:56;;;;;;;1.90;0.85;;;;;;;28.62;37.56;96859.88;6132659;23;20740;-72
2021/07/08 03:33:22;;;;;;;2.92;0.88;;;;;;;28.61;37.71;96856.44;6132138;23;20005;-73
2021/07/08 03:35:47;;;;;;;1.95;0.60;;;;;;;28.61;37.46;96851.16;6163453;23;20032;-72
2021/07/08 03:38:17;;;;;;;3.35;0.80;;;;;;;28.61;37.59;96845.88;6131841;23;20004;-73
2021/07/08 03:40:43;;;;;;;3.35;0.77;;;;;;;28.61;37.63;96851.16;6162277;23;20044;-72
2021/07/08 03:43:08;;;;;;;0.90;0.50;;;;;;;28.61;37.63;96859.06;6133707;23;20020;-72
2021/07/08 03:45:34;;;;;;;3.88;0.70;;;;;;;28.60;37.62;96854.72;6135104;23;20839;-73
2021/07/08 03:47:59;;;;;;;3.30;0.60;;;;;;;28.61;37.49;96845.88;6157245;23;20005;-73
2021/07/08 03:50:25;;;;;;;3.35;0.60;;;;;;;28.62;37.57;96855.47;6111509;23;20417;-73
2021/07/08 03:52:53;;;;;;;2.42;0.70;;;;;;;28.61;37.49;96859.06;6131198;23;20009;-73
2021/07/08 03:55:20;;;;;;;2.08;0.70;;;;;;;28.59;37.55;96847.75;6159772;23;20011;-73
2021/07/08 03:57:55;;;;;;;3.03;0.60;;;;;;;28.57;37.57;96849.66;6109542;23;20013;-73
2021/07/08 04:00:25;;;;;;;1.42;0.60;;;;;;;28.61;37.57;96850.28;6158844;23;20136;-73
2021/07/08 04:02:51;;;;;;;2.25;0.70;;;;;;;28.58;37.72;96847.84;6134491;23;20017;-72
2021/07/08 04:05:16;;;;;;;1.00;0.60;;;;;;;28.58;37.61;96835.53;6135688;23;20662;-72
2021/07/08 04:07:41;;;;;;;2.05;0.90;;;;;;;28.59;37.46;96831.94;6134249;23;20855;-73
2021/07/08 04:10:07;;;;;;;2.05;0.57;;;;;;;28.58;37.70;96840.78;6135317;23;20036;-74
2021/07/08 04:12:33;;;;;;;5.10;0.95;;;;;;;28.59;37.56;96831.94;6133463;23;20016;-70
2021/07/08 04:14:58;;;;;;;2.63;0.73;;;;;;;28.60;37.58;96840.69;6157180;23;20005;-73
2021/07/08 04:17:24;;;;;;;3.30;0.70;;;;;;;28.59;37.66;96831.94;6135143;23;20116;-72
2021/07/08 04:19:49;;;;;;;3.22;0.93;;;;;;;28.59;37.60;96828.44;6081125;23;20449;-73
2021/07/08 04:22:14;;;;;;;1.80;0.80;;;;;;;28.57;37.49;96820.66;6134796;23;20651;-73
2021/07/08 04:24:43;;;;;;;3.47;0.73;;;;;;;28.58;37.73;96824.97;6105639;23;20591;-72
2021/07/08 04:27:08;;;;;;;1.80;0.80;;;;;;;28.58;37.72;96824.97;6135112;23;20108;-72
2021/07/08 04:29:34;;;;;;;2.53;0.90;;;;;;;28.57;37.67;96820.66;6107727;23;20001;-73
2021/07/08 04:32:00;;;;;;;6.07;1.00;;;;;;;28.58;37.60;96818.84;6132296;23;20736;-72
2021/07/08 04:34:25;;;;;;;9.85;0.80;;;;;;;28.58;37.57;96803.03;6134849;23;20028;-72
2021/07/08 04:36:53;;;;;;;0.85;0.70;;;;;;;28.58;37.44;96808.31;6160859;23;20020;-72
2021/07/08 04:39:19;;;;;;;1.25;0.65;;;;;;;28.56;37.62;96813.66;6160621;23;20016;-72
2021/07/08 04:41:44;;;;;;;5.72;0.82;;;;;;;28.55;37.49;96814.63;6111097;23;20009;-73
2021/07/08 04:44:11;;;;;;;3.15;0.80;;;;;;;28.57;37.83;96812.75;6083970;23;20434;-73
2021/07/08 04:46:36;;;;;;;1.58;0.90;;;;;;;28.56;37.59;96811.03;6160746;23;20005;-72
2021/07/08 04:49:02;;;;;;;3.67;0.80;;;;;;;28.56;37.70;96805.75;6135689;23;20148;-71
2021/07/08 04:51:27;;;;;;;2.22;0.70;;;;;;;28.56;37.67;96795.22;6135487;23;20016;-72
2021/07/08 04:53:52;;;;;;;4.40;1.00;;;;;;;28.52;37.65;96781.38;6110010;23;20008;-73
2021/07/08 04:56:18;;;;;;;3.80;0.93;;;;;;;28.55;37.74;96772.44;6137113;23;20012;-73
2021/07/08 04:58:43;;;;;;;0.70;0.63;;;;;;;28.56;37.62;96779.41;6111179;23;20001;-73
2021/07/08 05:01:09;;;;;;;3.55;0.80;;;;;;;28.54;37.85;96781.31;6158304;23;20005;-73
2021/07/08 05:03:35;;;;;;;3.55;0.70;;;;;;;28.55;37.61;96793.53;6110491;23;20009;-73
2021/07/08 05:06:00;;;;;;;2.92;0.75;;;;;;;28.55;37.63;96817.25;6109731;23;20008;-73
2021/07/08 05:08:25;;;;;;;1.35;0.80;;;;;;;28.54;37.64;96840.13;6134522;23;20013;-73
2021/07/08 05:10:51;;;;;;;1.67;0.80;;;;;;;28.53;37.59;96842.88;6134199;23;20040;-73
2021/07/08 05:13:22;;;;;;;1.25;0.70;;;;;;;28.55;37.68;96846.25;6160081;23;20183;-73
2021/07/08 05:15:47;;;;;;;4.13;0.82;;;;;;;28.55;37.66;96846.25;6133799;23;20114;-73
2021/07/08 05:18:12;;;;;;;1.75;0.70;;;;;;;28.54;37.81;96849.84;6110753;23;20636;-73
2021/07/08 05:20:39;;;;;;;2.25;0.77;;;;;;;28.55;37.70;96851.53;6109717;23;20036;-73
2021/07/08 05:23:13;;;;;;;2.67;0.60;;;;;;;28.52;37.79;96859.63;6111636;23;20009;-73
2021/07/08 05:25:38;;;;;;;3.22;0.85;;;;;;;28.56;37.73;96869.03;6087312;23;20036;-73
2021/07/08 05:28:04;;;;;;;1.20;0.70;;;;;;;28.56;37.71;96869.03;6108965;23;20012;-73
2021/07/08 05:30:31;;;;;;;1.67;0.60;;;;;;;28.57;37.73;96865.47;6136177;23;20514;-72
2021/07/08 05:32:57;;;;;;;1.05;0.70;;;;;;;28.56;37.69;96863.75;6158098;23;20005;-72
2021/07/08 05:35:23;;;;;;;1.77;0.57;;;;;;;28.59;37.82;96873.25;6136493;23;20035;-72
2021/07/08 05:37:49;;;;;;;2.05;0.82;;;;;;;28.56;37.85;96882.22;6108372;23;20004;-73
2021/07/08 05:40:14;;;;;;;2.20;0.70;;;;;;;28.58;37.93;96892.66;6158727;23;20498;-73
2021/07/08 05:42:39;;;;;;;1.40;0.63;;;;;;;28.57;37.74;96899.75;6128366;23;20015;-70
2021/07/08 05:45:06;;;;;;;1.67;0.88;;;;;;;28.59;37.84;96916.31;6133621;23;20012;-73
2021/07/08 05:47:31;;;;;;;1.42;0.50;;;;;;;28.59;37.79;96921.56;6135551;23;20009;-73
2021/07/08 05:49:57;;;;;;;2.20;0.88;;;;;;;28.58;37.75;96921.66;6158817;23;20872;-71
2021/07/08 05:52:23;;;;;;;4.22;1.10;;;;;;;28.58;37.90;96919.88;6105167;23;20005;-72
2021/07/08 05:54:48;;;;;;;1.67;0.50;;;;;;;28.58;37.77;96940.97;6081025;23;20020;-72
2021/07/08 05:57:14;;;;;;;2.83;0.68;;;;;;;28.60;37.79;96948.78;6156662;23;20008;-73
2021/07/08 05:59:39;;;;;;;2.20;0.80;;;;;;;28.58;37.79;96948.88;6133922;23;20001;-73
2021/07/08 06:02:05;;;;;;;2.95;0.70;;;;;;;28.60;37.68;96954.91;6105551;23;20008;-73
2021/07/08 06:04:30;;;;;;;1.40;0.90;;;;;;;28.58;37.70;96954.16;6108971;23;20016;-72
2021/07/08 06:06:56;;;;;;;3.50;0.68;;;;;;;28.59;37.70;96947.94;6105231;23;20013;-73
2021/07/08 06:09:21;;;;;;;1.55;0.60;;;;;;;28.59;37.83;96940.03;6131170;23;20422;-73
2021/07/08 06:11:47;;;;;;;1.08;0.85;;;;;;;28.60;37.77;96939.06;6133415;23;20005;-72
2021/07/08 06:14:12;;;;;;;2.42;0.80;;;;;;;28.59;37.82;96929.47;6158872;23;20011;-72
2021/07/08 06:16:37;;;;;;;4.63;0.70;;;;;;;28.59;37.98;96921.56;6108806;23;20009;-73
2021/07/08 06:19:03;;;;;;;2.22;0.68;;;;;;;28.59;37.93;96918.94;6129387;23;20004;-72
2021/07/08 06:21:28;;;;;;;3.55;0.80;;;;;;;28.59;37.68;96925.97;6134445;23;20047;-73
2021/07/08 06:23:54;;;;;;;2.53;0.60;;;;;;;28.57;37.78;96926.09;6134579;23;20408;-72
2021/07/08 06:33:03;;;;;;;2.65;0.80;;;;;;;28.56;37.91;96914.69;6161903;23;20019;-73
2021/07/08 06:35:29;;;;;;;2.97;0.70;;;;;;;28.58;37.98;96925.16;6136398;23;20009;-72
2021/07/08 06:37:54;;;;;;;1.65;0.65;;;;;;;28.55;37.82;96925.34;6133617;23;20001;-73
2021/07/08 06:40:20;;;;;;;2.22;0.82;;;;;;;28.58;37.78;96930.44;6104536;23;20008;-74
2021/07/08 06:42:45;;;;;;;6.47;0.77;;;;;;;28.57;37.90;96936.66;6132780;23;20318;-73
2021/07/08 06:45:13;;;;;;;3.92;0.80;;;;;;;28.58;37.88;96940.13;6106623;23;20505;-72
2021/07/08 06:47:42;;;;;;;1.45;0.70;;;;;;;28.58;37.87;96938.34;6129273;23;20015;-72
2021/07/08 06:50:08;;;;;;;8.30;0.95;;;;;;;28.57;37.85;96939.28;6102323;23;20012;-73
2021/07/08 06:52:33;;;;;;;5.15;1.02;;;;;;;28.59;38.01;96942.66;6103587;23;20116;-72
2021/07/08 06:54:59;;;;;;;3.78;1.48;;;;;;;28.58;38.07;96940.97;6128883;23;20005;-73
2021/07/08 06:57:24;;;;;;;21.90;3.25;;;;;;;28.58;38.04;96935.69;6104941;23;20005;-76
2021/07/08 06:59:49;;;;;;;13.02;2.80;;;;;;;28.54;38.13;96921.84;6108510;23;20005;-76
2021/07/08 07:02:15;;;;;;;10.15;2.25;;;;;;;28.55;38.18;96936.75;6081983;23;20040;-76
2021/07/08 07:04:40;;;;;;;18.77;2.80;;;;;;;28.54;38.16;96942.09;6154600;23;20012;-75
2021/07/08 07:07:06;;;;;;;9.63;2.70;;;;;;;28.52;38.43;96938.69;6129817;23;20130;-75
2021/07/08 07:09:31;;;;;;;19.23;3.08;;;;;;;28.49;38.58;96937.09;6103132;23;20012;-76
2021/07/08 07:11:57;;;;;;;16.63;2.92;;;;;;;28.46;38.75;96932.03;6129472;23;20796;-75
2021/07/08 07:15:22;;;;;;;10.77;2.47;;;;;;;-148.56;100.00;61375.16;6133878;23;20012;-76
2021/07/08 07:18:46;;;;;;;9.23;2.05;;;;;;;-148.56;100.00;61375.16;6171252;23;20023;-77
2021/07/08 07:22:09;;;;;;;5.82;1.48;;;;;;;-148.56;100.00;61375.16;6182546;23;20009;-77
2021/07/08 07:25:39;;;;;;;5.00;1.67;;;;;;;-148.56;100.00;61375.16;6184497;23;20407;-78
2021/07/08 07:29:06;;;;;;;7.22;1.60;;;;;;;-148.56;100.00;61375.16;6184037;23;20014;-77
2021/07/08 07:32:30;;;;;;;4.85;1.48;;;;;;;-148.56;100.00;61375.16;6157922;23;20133;-75
2021/07/08 07:35:54;;;;;;;7.70;2.00;;;;;;;-148.56;100.00;61375.16;6143458;23;20390;-75
2021/07/08 07:39:18;;;;;;;7.20;1.63;;;;;;;-148.56;100.00;61375.16;6182276;23;20173;-75
2021/07/08 07:42:41;;;;;;;8.20;1.63;;;;;;;-148.56;100.00;61375.16;6183518;23;20655;-76
2021/07/08 07:46:06;;;;;;;4.82;1.92;;;;;;;-148.56;100.00;61375.16;6169758;23;20081;-75
2021/07/08 07:49:30;;;;;;;11.40;1.98;;;;;;;-148.56;100.00;61375.16;6182370;23;20058;-76
2021/07/08 07:51:59;;;;;;;7.00;1.92;;;;;;;28.46;38.75;96932.03;6184956;23;20225;-75
2021/07/08 07:55:27;;;;;;;9.15;1.63;;;;;;;-148.56;100.00;61375.16;6157654;23;20066;-75
2021/07/08 07:58:51;;;;;;;9.10;2.00;;;;;;;-148.56;100.00;61375.16;6172367;23;20016;-76
2021/07/08 08:02:15;;;;;;;9.18;1.95;;;;;;;-148.56;100.00;61375.16;6185740;23;20004;-75
2021/07/08 08:05:41;;;;;;;6.35;1.80;;;;;;;-148.56;100.00;61375.16;6172447;23;20028;-76
2021/07/08 08:09:05;;;;;;;12.90;2.17;;;;;;;-148.56;100.00;61375.16;6184901;23;20031;-77
2021/07/08 08:12:29;;;;;;;10.43;1.92;;;;;;;-148.56;100.00;61375.16;6169714;23;20104;-74
2021/07/08 08:14:54;;;;;;;7.68;2.20;;;;;;;28.14;40.90;96924.28;6184744;23;20088;-76
2021/07/08 08:17:20;;;;;;;11.98;2.22;;;;;;;28.07;40.91;96931.72;6160369;23;20004;-77
2021/07/08 08:19:46;;;;;;;11.93;2.30;;;;;;;28.00;41.09;96923.31;6157867;23;20264;-76
2021/07/08 08:22:11;;;;;;;7.38;2.00;;;;;;;27.91;41.17;96916.84;6185311;23;20464;-76
2021/07/08 08:24:40;;;;;;;5.15;1.55;;;;;;;27.90;41.31;96920.44;6183000;23;20009;-77
2021/07/08 08:27:06;;;;;;;9.55;1.45;;;;;;;27.85;41.54;96925.13;6184645;23;20830;-77
2021/07/08 08:29:32;;;;;;;7.57;1.67;;;;;;;27.80;41.49;96919.25;6183949;23;20111;-74
2021/07/08 08:31:57;;;;;;;6.53;1.65;;;;;;;27.73;41.60;96917.94;6182575;23;20228;-76
2021/07/08 08:34:25;;;;;;;5.45;1.60;;;;;;;27.69;41.97;96914.63;6160458;23;20008;-77
2021/07/08 08:36:50;;;;;;;10.77;1.70;;;;;;;27.68;41.69;96922.63;6135288;23;20449;-75
2021/07/08 08:39:16;;;;;;;6.00;2.00;;;;;;;27.62;41.59;96927.31;6186611;23;19997;-76
2021/07/08 08:41:41;;;;;;;5.07;1.88;;;;;;;27.60;41.49;96918.63;6186619;23;20413;-75
2021/07/08 08:44:07;;;;;;;6.35;2.00;;;;;;;27.61;41.63;96920.34;6183378;23;20022;-75
2021/07/08 08:47:31;;;;;;;3.25;1.60;;;;;;;-148.56;100.00;61375.16;6131833;23;20015;-76
2021/07/08 08:50:55;;;;;;;5.22;1.60;;;;;;;-148.56;100.00;61375.16;6166045;23;20393;-74
2021/07/08 08:54:19;;;;;;;6.45;1.45;;;;;;;-148.56;100.00;61375.16;6187477;23;20047;-76
2021/07/08 08:57:46;;;;;;;3.42;1.73;;;;;;;-148.56;100.00;61375.16;6189213;23;20519;-74
2021/07/08 09:01:22;;;;;;;5.00;1.80;;;;;;;-148.56;100.00;61375.16;6173443;23;20756;-76
2021/07/08 09:04:46;;;;;;;4.93;1.50;;;;;;;-148.56;100.00;61375.16;6154928;23;20012;-75
2021/07/08 09:08:26;;;;;;;4.45;1.17;;;;;;;-148.56;100.00;61375.16;6183325;23;20000;-75
2021/07/08 09:12:17;;;;;;;9.18;2.55;;;;;;;-148.56;100.00;61375.16;6185099;23;20032;-77
2021/07/08 09:15:42;;;;;;;13.23;3.00;;;;;;;-148.56;100.00;61375.16;6158832;23;20043;-77
2021/07/08 09:19:21;;;;;;;7.05;2.42;;;;;;;-148.56;100.00;61375.16;6175016;23;20783;-77
2021/07/08 09:22:46;;;;;;;6.18;1.75;;;;;;;-148.56;100.00;61375.16;6187011;23;20821;-77
2021/07/08 09:26:19;;;;;;;7.20;1.90;;;;;;;-148.56;100.00;61375.16;6190877;23;20004;-77
2021/07/08 09:29:49;;;;;;;6.18;1.70;;;;;;;-148.56;100.00;61375.16;6190506;23;20177;-77
2021/07/08 09:33:27;;;;;;;7.20;2.05;;;;;;;-148.56;100.00;61375.16;6165600;23;20548;-77
2021/07/08 09:37:02;;;;;;;3.78;1.38;;;;;;;-148.56;100.00;61375.16;6180221;23;20004;-77
2021/07/08 09:40:46;;;;;;;5.07;1.67;;;;;;;-148.56;100.00;61375.16;6190445;23;20429;-76
2021/07/08 09:44:20;;;;;;;3.30;1.50;;;;;;;-148.56;100.00;61375.16;6177402;23;20083;-77
2021/07/08 09:47:45;;;;;;;2.50;1.20;;;;;;;-148.56;100.00;61375.16;6180133;23;20064;-78
2021/07/08 09:51:28;;;;;;;3.67;1.42;;;;;;;-148.56;100.00;61375.16;6177308;23;20099;-78
2021/07/08 09:58:29;;;;;;;5.50;2.05;;;;;;;-148.56;100.00;61375.16;6188637;23;20031;-78
2021/07/08 10:01:56;;;;;;;2.00;1.10;;;;;;;-148.56;100.00;61375.16;6176682;23;20750;-78
2021/07/08 10:05:21;;;;;;;4.47;1.40;;;;;;;-148.56;100.00;61375.16;6178888;23;20024;-77
2021/07/08 10:08:45;;;;;;;3.22;1.20;;;;;;;-148.56;100.00;61375.16;6188779;23;20385;-78
2021/07/08 10:12:13;;;;;;;1.90;1.15;;;;;;;-148.56;100.00;61375.16;6192521;23;20019;-78
2021/07/08 10:15:40;;;;;;;2.97;1.40;;;;;;;-148.56;100.00;61375.16;6177804;23;20048;-78
2021/07/08 10:19:04;;;;;;;5.25;1.50;;;;;;;-148.56;100.00;61375.16;6150610;23;20043;-77
2021/07/08 10:22:14;;;;;;;2.15;1.10;;;;;;;;;;6149639;23;20322;-78
2021/07/08 10:24:39;;;;;;;2.53;1.17;;;;;;;28.35;39.82;96922.16;6190057;23;20406;-78
2021/07/08 10:27:08;;;;;;;3.08;1.38;;;;;;;28.35;39.79;96916.91;6164318;23;20212;-78
2021/07/08 10:29:36;;;;;;;1.98;1.17;;;;;;;28.34;39.71;96917.81;6165132;23;20719;-78
2021/07/08 10:32:01;;;;;;;4.03;1.30;;;;;;;28.35;39.95;96911.63;6165009;23;20013;-78
2021/07/08 10:34:27;;;;;;;4.38;1.13;;;;;;;28.35;39.71;96914.25;6190310;23;20325;-77
2021/07/08 10:36:53;;;;;;;2.35;1.17;;;;;;;28.36;39.58;96921.22;6188438;23;20296;-78
2021/07/08 10:39:23;;;;;;;3.28;1.23;;;;;;;28.38;39.68;96935.13;6163974;23;20024;-77
2021/07/08 10:41:55;;;;;;;2.53;1.10;;;;;;;28.40;39.63;96938.53;6138823;23;20019;-77
2021/07/08 10:44:48;;;;;;;3.17;1.55;;;;;;;28.41;39.63;96950.78;6190003;23;20012;-77
2021/07/08 10:47:37;;;;;;;3.70;1.27;;;;;;;28.42;39.69;96956.91;6189150;23;20289;-77
2021/07/08 10:50:24;;;;;;;3.47;1.15;;;;;;;28.41;39.96;96950.78;6180685;23;20053;-76
2021/07/08 13:47:00;;;;;;;3.13;1.20;;;;;;;26.64;47.04;96893.28;5036082;27;20418;-41
2021/07/08 13:49:30;;;;;;;3.95;1.27;;;;;;;26.91;46.30;96889.19;5035837;28;20033;-39
2021/07/08 13:52:01;;;;;;;3.30;1.40;;;;;;;27.15;45.67;96896.69;5041022;28;20612;-35
2021/07/08 13:54:33;;;;;;;3.45;0.95;;;;;;;27.42;45.86;96898.66;5037690;28;20044;-37
2021/07/08 13:56:59;;;;;;;2.17;1.00;;;;;;;27.64;44.58;96888.59;5039468;28;20039;-32
2021/07/08 13:59:24;;;;;;;1.50;1.15;;;;;;;27.90;43.89;96894.09;5032231;28;20025;-35
2021/07/08 14:01:50;;;;;;;2.80;1.00;;;;;;;28.15;43.61;96891.75;5020231;28;20072;-39
2021/07/08 14:04:16;;;;;;;6.47;1.38;;;;;;;28.38;42.98;96882.41;5018757;28;20025;-35
2021/07/08 14:06:41;;;;;;;4.63;1.00;;;;;;;28.59;42.28;96884.66;5008981;28;20064;-35
2021/07/08 14:09:07;;;;;;;1.90;0.90;;;;;;;28.78;41.56;96878.22;5006331;28;20534;-36
2021/07/08 14:11:32;;;;;;;3.53;0.98;;;;;;;28.96;41.40;96876.22;5010498;28;20037;-44
2021/07/08 14:13:58;;;;;;;2.10;0.93;;;;;;;29.13;40.98;96872.47;5010949;28;20033;-38
2021/07/08 14:16:25;;;;;;;4.70;1.25;;;;;;;29.26;40.67;96864.59;5006563;28;20714;-40
2021/07/08 14:18:51;;;;;;;5.63;1.30;;;;;;;29.40;40.59;96871.56;4999744;28;20055;-39
2021/07/08 14:21:17;;;;;;;2.15;1.02;;;;;;;29.51;40.43;96856.78;5012102;28;20029;-39
2021/07/08 14:23:43;;;;;;;4.18;1.10;;;;;;;29.59;40.06;96849.22;5011262;28;20083;-38
2021/07/08 14:26:08;;;;;;;4.50;1.10;;;;;;;29.72;39.95;96857.19;5009158;28;20034;-43
2021/07/08 14:28:34;;;;;;;2.40;0.98;;;;;;;29.79;39.66;96854.97;5000891;28;20061;-40
2021/07/08 14:30:59;;;;;;;8.88;1.40;;;;;;;29.87;39.73;96844.72;5013079;28;20671;-40
2021/07/08 14:33:25;;;;;;;2.53;1.00;;;;;;;29.93;39.88;96854.84;5019898;28;20029;-42
2021/07/08 14:35:50;;;;;;;2.50;1.08;;;;;;;29.98;39.83;96852.72;5014355;28;20026;-39
2021/07/08 14:38:16;;;;;;;5.47;2.85;;;;;;;30.05;40.15;96852.31;5011667;28;20390;-40
2021/07/08 14:40:42;;;;;;;77.45;38.92;;;;;;;30.10;40.30;96850.19;5020365;28;23246;-35
2021/07/08 14:43:46;;;;;;;261.70;132.70;;;;;;;30.17;39.66;96851.47;5004785;28;20155;-37
2021/07/08 14:46:14;;;;;;;813.58;570.50;;;;;;;30.25;39.32;96850.94;5024046;28;20676;-36
2021/07/08 14:48:40;;;;;;;825.22;592.40;;;;;;;30.30;38.86;96855.88;5018879;28;20084;-42
2021/07/08 14:51:08;;;;;;;975.90;682.22;;;;;;;30.34;38.52;96863.50;5015097;28;20144;-34
2021/07/08 14:53:33;;;;;;;833.42;600.40;;;;;;;30.39;38.29;96855.22;5022301;28;20033;-45
2021/07/08 14:55:58;;;;;;;673.83;483.38;;;;;;;30.43;38.26;96855.88;5016868;28;20087;-39
2021/07/08 14:58:24;;;;;;;564.15;403.70;;;;;;;30.45;38.36;96865.38;5016414;28;20033;-38
2021/07/08 15:00:49;;;;;;;462.42;297.23;;;;;;;30.45;38.21;96853.94;5015033;28;20033;-39
2021/07/08 15:03:16;;;;;;;383.52;232.45;;;;;;;30.46;38.27;96851.19;5025517;28;20029;-39
2021/07/08 15:05:41;;;;;;;314.90;171.98;;;;;;;30.46;37.86;96837.97;5027216;28;20042;-37
2021/07/08 15:08:07;;;;;;;224.93;125.18;;;;;;;30.46;37.61;96840.63;5024353;28;20473;-36
2021/07/08 15:10:32;;;;;;;172.05;95.43;;;;;;;30.47;37.50;96849.38;5025154;28;20029;-44
2021/07/08 15:12:58;;;;;;;189.00;104.40;;;;;;;30.46;37.46;96861.78;5027345;28;20036;-40
2021/07/08 15:15:24;;;;;;;103.97;60.10;;;;;;;30.47;37.58;96876.69;5019179;28;20029;-43
2021/07/08 15:17:50;;;;;;;89.47;54.67;;;;;;;30.46;37.70;96861.78;5025337;28;20036;-37
2021/07/08 15:20:17;;;;;;;101.13;58.15;;;;;;;30.47;37.65;96847.59;5024332;28;20136;-40
2021/07/08 15:22:42;;;;;;;132.80;77.95;;;;;;;30.48;37.78;96848.44;5022349;28;20095;-35
2021/07/08 15:25:08;;;;;;;145.32;80.93;;;;;;;30.48;37.68;96859.84;5021431;28;20025;-42